Time;durP1;ratioP1;P1;durP2;ratioP2;P2;SDS_P1;SDS_P2;PMS_P1;PMS_P2;Temp;Humidity;BMP_temperature;BMP_pressure;BME280_temperature;BME280_humidity;BME280_pressure;Samples;Min_cycle;Max_cycle;Signal;HPM_P1;HPM_P2
2023/09/02 00:01:11;;;;;;;7.80;3.50;;;;;;;20.03;67.00;99154.14;221884;181;133024;-64
2023/09/02 00:06:19;;;;;;;7.30;3.70;;;;;;;20.06;67.14;99157.47;221780;181;149923;-61
2023/09/02 00:11:24;;;;;;;;;;;;;;;20.05;67.66;99149.64;221932;181;139048;-61
2023/09/02 00:16:28;;;;;;;7.50;3.70;;;;;;;19.99;68.31;99153.39;221956;181;133020;-63
2023/09/02 00:21:33;;;;;;;4.90;3.20;;;;;;;19.79;69.41;99156.04;221801;181;147287;-60
2023/09/02 00:26:39;;;;;;;;;;;;;;;19.58;70.37;99158.29;221993;181;139043;-60
2023/09/02 00:31:44;;;;;;;7.10;3.20;;;;;;;19.44;71.58;99155.00;221969;182;133007;-61
2023/09/02 00:36:50;;;;;;;6.40;3.50;;;;;;;19.34;72.47;99144.95;221833;182;149616;-61
2023/09/02 00:41:59;;;;;;;6.10;3.50;;;;;;;19.29;73.04;99136.39;221914;181;139725;-60
2023/09/02 00:47:02;;;;;;;6.80;3.30;;;;;;;19.20;73.57;99136.70;221836;182;138671;-61
2023/09/02 00:52:07;;;;;;;4.60;3.00;;;;;;;19.12;74.26;99138.45;221887;182;148516;-64
2023/09/02 00:57:11;;;;;;;4.90;3.10;;;;;;;19.04;74.75;99135.17;221835;181;138530;-62
2023/09/02 01:02:17;;;;;;;5.30;3.10;;;;;;;18.98;75.44;99136.89;221750;182;138993;-63
2023/09/02 01:07:23;;;;;;;6.70;3.50;;;;;;;19.00;75.66;99144.98;221799;181;147457;-62
2023/09/02 01:12:30;;;;;;;5.30;3.40;;;;;;;19.00;75.93;99147.11;221802;181;140382;-61
2023/09/02 01:17:34;;;;;;;5.40;3.40;;;;;;;19.00;76.04;99144.10;221826;181;137417;-63
2023/09/02 01:23:12;;;;;;;5.80;3.30;;;;;;;18.99;76.16;99142.94;221833;181;147693;-64
2023/09/02 01:28:28;;;;;;;5.50;3.50;;;;;;;18.92;76.89;99143.05;221846;181;142364;-62
2023/09/02 01:33:36;;;;;;;4.50;2.90;;;;;;;18.88;77.42;99145.20;221898;181;138132;-61
2023/09/02 01:38:42;;;;;;;5.40;3.50;;;;;;;18.88;77.42;99134.02;221989;181;147540;-61
2023/09/02 01:43:48;;;;;;;5.50;3.60;;;;;;;18.92;77.53;99126.52;221869;181;138582;-61
2023/09/02 01:48:54;;;;;;;5.30;3.40;;;;;;;18.94;77.56;99131.13;221736;178;137582;-61
2023/09/02 01:54:01;;;;;;;5.80;3.20;;;;;;;18.96;77.95;99129.18;221774;181;147700;-63
2023/09/02 01:59:06;;;;;;;3.10;2.60;;;;;;;18.94;78.12;99133.30;221781;181;139026;-60
2023/09/02 02:04:31;;;;;;;5.80;3.30;;;;;;;18.97;78.25;99132.83;221738;182;137871;-60
2023/09/02 02:09:47;;;;;;;4.50;2.70;;;;;;;19.02;78.28;99124.48;221960;181;147513;-60
2023/09/02 02:14:54;;;;;;;4.50;3.00;;;;;;;18.99;78.26;99119.12;221858;181;139825;-63
2023/09/02 02:19:58;;;;;;;4.20;3.00;;;;;;;18.97;78.75;99124.00;221979;181;138092;-61
2023/09/02 02:25:03;;;;;;;5.10;3.30;;;;;;;18.99;79.14;99119.65;223914;181;148309;-61
2023/09/02 02:30:07;;;;;;;5.90;3.10;;;;;;;19.01;79.48;99111.98;223858;181;139042;-62
2023/09/02 02:35:12;;;;;;;5.00;3.40;;;;;;;19.05;79.71;99111.88;223862;182;137443;-61
2023/09/02 02:40:15;;;;;;;6.20;3.80;;;;;;;19.17;79.54;99121.38;223784;181;148900;-62
2023/09/02 02:45:19;;;;;;;5.60;3.70;;;;;;;19.23;79.33;99104.48;223915;181;138681;-61
2023/09/02 02:50:22;;;;;;;9.10;3.40;;;;;;;19.22;79.21;99076.28;223951;181;138271;-61
2023/09/02 02:55:25;;;;;;;6.30;3.70;;;;;;;19.27;79.37;99095.79;223919;181;147390;-62
2023/09/02 03:00:31;;;;;;;11.60;4.60;;;;;;;19.27;79.13;99141.48;223846;181;138831;-61
2023/09/02 03:05:39;;;;;;;6.10;3.50;;;;;;;19.25;79.14;99146.70;223810;181;139198;-61
2023/09/02 03:10:42;;;;;;;5.30;3.20;;;;;;;19.23;79.33;99148.58;223870;181;147376;-62
2023/09/02 03:15:49;;;;;;;6.30;3.00;;;;;;;19.19;79.50;99141.36;223980;181;139415;-62
2023/09/02 03:26:41;;;;;;;3.90;2.70;;;;;;;19.24;79.67;99133.31;220496;193;665922;-62
2023/09/02 03:31:49;;;;;;;4.60;2.60;;;;;;;19.26;79.71;99123.20;221472;186;136258;-62
2023/09/02 03:36:55;;;;;;;4.00;2.60;;;;;;;19.24;79.59;99131.89;221390;185;144469;-61
2023/09/02 03:42:01;;;;;;;5.70;2.60;;;;;;;19.22;80.02;99128.27;221604;181;138668;-61
2023/09/02 03:47:05;;;;;;;4.70;2.40;;;;;;;19.27;80.03;99125.12;221662;185;141679;-62
2023/09/02 03:52:09;;;;;;;3.30;2.40;;;;;;;19.28;79.93;99132.59;221794;184;144836;-62
2023/09/02 03:57:14;;;;;;;4.30;2.40;;;;;;;19.20;80.13;99125.95;221802;185;139041;-63
2023/09/02 04:02:18;;;;;;;;;;;;;;;19.16;80.43;99127.40;221838;184;138246;-61
2023/09/02 04:07:23;;;;;;;3.30;2.10;;;;;;;19.18;80.69;99116.29;221869;184;145741;-60
2023/09/02 04:12:28;;;;;;;3.50;2.80;;;;;;;19.19;80.87;99112.02;221673;183;140237;-61
2023/09/02 04:17:32;;;;;;;5.30;2.80;;;;;;;19.21;80.93;99113.85;221665;184;137656;-61
2023/09/02 04:22:37;;;;;;;3.90;2.80;;;;;;;19.29;81.06;99118.07;221681;184;146933;-62
2023/09/02 04:27:43;;;;;;;4.50;3.30;;;;;;;19.26;81.05;99121.63;221696;184;138972;-61
2023/09/02 04:32:47;;;;;;;4.40;3.80;;;;;;;19.23;81.10;99124.04;221654;183;137839;-62
2023/09/02 04:37:53;;;;;;;;;;;;;;;19.26;81.06;99126.42;221725;184;147288;-62
2023/09/02 04:42:59;;;;;;;6.70;4.60;;;;;;;19.29;81.12;99129.98;221728;184;138953;-61
2023/09/02 04:48:06;;;;;;;6.60;4.00;;;;;;;19.22;81.19;99135.52;221680;184;136970;-60
2023/09/02 04:53:11;;;;;;;6.60;4.60;;;;;;;19.19;81.38;99153.38;221771;181;146302;-61
2023/09/02 04:58:20;;;;;;;6.40;4.60;;;;;;;19.18;81.30;99163.38;221786;182;138724;-63
2023/09/02 05:03:25;;;;;;;4.20;3.80;;;;;;;19.22;81.78;99175.23;221879;181;137626;-63
2023/09/02 05:08:34;;;;;;;8.40;4.70;;;;;;;19.33;81.58;99196.89;221745;181;146223;-62
2023/09/02 05:13:40;;;;;;;5.60;4.40;;;;;;;19.32;81.36;99200.36;221784;183;139025;-61
2023/09/02 05:18:45;;;;;;;6.50;4.00;;;;;;;19.27;80.96;99204.11;221833;182;138201;-62
2023/09/02 05:23:52;;;;;;;3.80;3.30;;;;;;;19.25;80.86;99200.88;221783;183;146220;-63
2023/09/02 05:28:58;;;;;;;3.20;2.60;;;;;;;19.24;80.46;99203.98;221777;181;139445;-63
2023/09/02 05:34:03;;;;;;;;;;;;;;;19.19;80.39;99206.30;221850;181;137712;-63
2023/09/02 05:39:08;;;;;;;2.80;2.10;;;;;;;19.16;80.21;99206.90;222035;182;147517;-63
2023/09/02 05:44:13;;;;;;;1.70;1.40;;;;;;;19.12;80.28;99211.05;221705;181;138909;-62
2023/09/02 05:49:19;;;;;;;2.30;1.70;;;;;;;19.09;80.36;99209.20;221789;181;139024;-63
2023/09/02 05:54:24;;;;;;;3.00;1.40;;;;;;;19.07;80.41;99213.31;221765;182;145800;-63
2023/09/02 05:59:30;;;;;;;2.40;1.40;;;;;;;19.13;80.19;99212.45;221851;181;139055;-64
2023/09/02 06:04:38;;;;;;;1.60;1.20;;;;;;;19.13;80.00;99217.22;221857;181;137615;-62
2023/09/02 06:09:42;;;;;;;1.90;1.40;;;;;;;19.10;80.15;99227.67;221847;181;146401;-61
2023/09/02 06:14:48;;;;;;;5.80;1.80;;;;;;;19.07;80.29;99231.09;221701;182;139953;-62
2023/09/02 06:19:52;;;;;;;2.40;1.50;;;;;;;19.03;80.36;99241.77;221875;181;136978;-61
2023/09/02 06:24:59;;;;;;;4.40;1.70;;;;;;;18.94;80.10;99243.38;221725;181;145821;-63
2023/09/02 06:30:06;;;;;;;3.30;1.30;;;;;;;18.89;80.55;99246.11;221735;181;138554;-58
2023/09/02 06:35:14;;;;;;;1.90;1.40;;;;;;;18.90;81.40;99251.41;221855;181;138546;-61
2023/09/02 06:40:20;;;;;;;102.70;80.50;;;;;;;19.01;81.90;99251.91;221877;182;145962;-64
2023/09/02 06:45:26;;;;;;;2.80;2.10;;;;;;;19.07;80.77;99253.50;221856;178;139576;-62
2023/09/02 06:50:31;;;;;;;2.90;1.60;;;;;;;19.06;80.86;99252.98;221853;182;137415;-63
2023/09/02 06:55:36;;;;;;;56.60;47.90;;;;;;;19.07;80.45;99255.23;221910;182;145885;-61
2023/09/02 07:00:40;;;;;;;3.20;2.10;;;;;;;19.36;80.99;99260.58;221759;181;138993;-61
2023/09/02 07:05:46;;;;;;;2.90;1.80;;;;;;;19.67;79.86;99271.02;221847;181;137325;-61
2023/09/02 07:10:50;;;;;;;2.70;1.60;;;;;;;19.72;79.16;99278.26;221813;182;145754;-60
2023/09/02 07:16:02;;;;;;;1.80;1.60;;;;;;;19.77;79.54;99281.01;221782;182;138995;-61
2023/09/02 07:21:07;;;;;;;19.20;17.20;;;;;;;19.77;79.74;99285.52;221905;181;138274;-61
2023/09/02 07:26:11;;;;;;;3.70;2.10;;;;;;;19.77;79.31;99291.63;221828;182;146668;-62
2023/09/02 07:31:16;;;;;;;1.60;1.50;;;;;;;19.80;78.68;99293.12;221834;182;139908;-60
2023/09/02 07:36:21;;;;;;;2.20;1.70;;;;;;;19.84;78.27;99300.09;221795;182;137810;-58
2023/09/02 07:41:26;;;;;;;2.20;1.70;;;;;;;19.91;77.67;99304.85;221860;182;145833;-60
2023/09/02 07:46:31;;;;;;;21.40;15.00;;;;;;;19.90;77.11;99314.70;221801;182;139714;-59
2023/09/02 07:51:36;;;;;;;;;;;;;;;20.12;77.75;99311.67;221970;182;137733;-62
2023/09/02 07:56:43;;;;;;;3.30;2.30;;;;;;;20.42;76.77;99312.71;221827;181;145891;-62
2023/09/02 08:01:47;;;;;;;3.30;1.70;;;;;;;20.48;76.55;99319.89;221939;182;140768;-63
2023/09/02 08:06:52;;;;;;;132.90;115.10;;;;;;;20.37;76.42;99323.98;221593;183;137824;-61
2023/09/02 08:11:56;;;;;;;3.80;3.20;;;;;;;20.37;76.35;99341.12;221670;182;145891;-60
2023/09/02 08:17:02;;;;;;;23.90;21.00;;;;;;;20.37;76.07;99344.75;221708;183;138866;-62
2023/09/02 08:22:06;;;;;;;213.70;145.30;;;;;;;20.31;75.85;99353.34;221829;183;138361;-63
2023/09/02 08:27:09;;;;;;;4.60;4.10;;;;;;;20.27;76.11;99358.83;221669;183;146446;-59
2023/09/02 08:32:13;;;;;;;2.60;2.40;;;;;;;20.23;76.33;99356.69;221454;183;140428;-60
2023/09/02 08:37:20;;;;;;;2.10;1.50;;;;;;;20.18;76.43;99358.86;221535;182;137255;-61
2023/09/02 08:42:27;;;;;;;2.30;2.00;;;;;;;20.07;76.63;99362.38;221594;181;147813;-59
2023/09/02 08:47:35;;;;;;;2.90;2.20;;;;;;;20.05;76.94;99366.52;221588;183;138864;-59
2023/09/02 08:52:40;;;;;;;2.60;1.90;;;;;;;20.11;77.32;99376.64;221966;183;139683;-59
2023/09/02 08:57:44;;;;;;;5.10;2.30;;;;;;;20.18;77.73;99384.95;221701;183;146065;-59
2023/09/02 09:02:50;;;;;;;3.70;2.50;;;;;;;20.17;77.39;99383.64;221760;183;138582;-62
2023/09/02 09:07:56;;;;;;;2.80;2.10;;;;;;;20.20;77.59;99387.25;221560;183;137028;-59
2023/09/02 09:13:04;;;;;;;2.90;2.20;;;;;;;20.25;77.95;99388.54;221531;182;145978;-59
2023/09/02 09:18:14;;;;;;;2.80;2.30;;;;;;;20.29;78.04;99392.88;221681;180;139906;-60
2023/09/02 09:23:19;;;;;;;7.90;2.10;;;;;;;20.36;77.58;99396.58;221675;182;139240;-60
2023/09/02 09:28:26;;;;;;;2.10;1.90;;;;;;;20.53;77.59;99403.17;221707;183;146568;-59
2023/09/02 09:33:31;;;;;;;2.30;2.00;;;;;;;20.71;77.02;99401.65;221566;183;141608;-58
2023/09/02 09:38:37;;;;;;;18.70;15.60;;;;;;;20.88;76.09;99398.02;221747;183;137145;-60
2023/09/02 09:43:42;;;;;;;;;;;;;;;20.93;75.94;99395.28;221717;183;145647;-58
2023/09/02 09:48:48;;;;;;;3.60;2.20;;;;;;;21.10;75.57;99403.57;221732;182;139062;-59
2023/09/02 09:53:53;;;;;;;3.90;2.20;;;;;;;21.22;75.86;99405.55;221777;183;137814;-61
2023/09/02 09:59:08;;;;;;;;;;;;;;;21.37;74.86;99408.25;221887;183;148193;-62
2023/09/02 10:04:12;;;;;;;3.50;2.70;;;;;;;21.49;74.38;99408.64;221714;183;138720;-59
2023/09/02 10:09:18;;;;;;;4.20;3.40;;;;;;;21.63;73.01;99413.02;221643;183;136758;-61
2023/09/02 10:14:22;;;;;;;4.00;2.90;;;;;;;21.63;72.60;99417.50;221846;182;147321;-60
2023/09/02 10:19:27;;;;;;;5.50;2.70;;;;;;;21.50;71.82;99423.75;221606;182;139043;-59
2023/09/02 10:25:04;;;;;;;5.70;3.20;;;;;;;21.38;72.18;99423.42;221667;182;137158;-61
2023/09/02 10:30:31;;;;;;;3.20;2.70;;;;;;;21.37;72.43;99426.30;221601;180;147933;-62
2023/09/02 10:35:41;;;;;;;4.90;2.90;;;;;;;21.50;72.92;99432.70;221629;182;139029;-59
2023/09/02 10:40:49;;;;;;;23.50;21.00;;;;;;;21.56;72.27;99440.77;221754;183;137578;-61
2023/09/02 10:45:54;;;;;;;8.80;4.80;;;;;;;21.64;71.90;99438.56;221659;183;147423;-60
2023/09/02 10:50:59;;;;;;;;;;;;;;;21.78;72.21;99437.84;221631;183;139076;-60
2023/09/02 10:56:03;;;;;;;5.20;3.00;;;;;;;21.96;71.29;99433.83;221691;182;131123;-65
2023/09/02 11:01:07;;;;;;;203.90;150.70;;;;;;;22.05;70.31;99439.73;221583;182;146709;-61
2023/09/02 11:06:12;;;;;;;9.40;7.50;;;;;;;22.10;69.77;99442.48;221586;182;139027;-62
2023/09/02 11:11:19;;;;;;;20.20;14.20;;;;;;;22.28;69.58;99443.20;221723;183;136998;-62
2023/09/02 11:16:23;;;;;;;8.30;5.80;;;;;;;22.52;69.48;99443.38;221666;180;147566;-61
2023/09/02 11:21:40;;;;;;;7.50;5.80;;;;;;;22.68;68.80;99445.48;221654;179;139411;-59
2023/09/02 11:26:53;;;;;;;31.20;28.10;;;;;;;22.77;69.23;99448.36;221788;183;137269;-65
2023/09/02 11:32:01;;;;;;;16.40;14.10;;;;;;;22.92;67.75;99451.45;221641;183;146926;-62
2023/09/02 11:37:06;;;;;;;7.30;3.90;;;;;;;22.94;66.22;99451.83;221544;182;138917;-61
2023/09/02 11:42:13;;;;;;;6.40;3.30;;;;;;;22.92;65.09;99452.82;221664;183;137622;-61
2023/09/02 11:47:17;;;;;;;5.80;3.40;;;;;;;22.96;64.80;99451.43;221754;183;146482;-61
2023/09/02 11:52:22;;;;;;;139.10;110.80;;;;;;;22.96;63.94;99452.95;221667;183;139064;-66
2023/09/02 11:57:27;;;;;;;;;;;;;;;22.84;63.50;99452.02;221673;182;138796;-66
2023/09/02 12:02:36;;;;;;;5.90;4.70;;;;;;;22.70;63.15;99447.05;221674;182;147547;-67
2023/09/02 12:07:45;;;;;;;3.40;3.00;;;;;;;22.58;63.70;99444.52;221632;183;138909;-69
2023/09/02 12:12:50;;;;;;;5.10;2.50;;;;;;;22.44;63.29;99449.27;221614;179;137668;-67
2023/09/02 12:17:55;;;;;;;6.80;5.90;;;;;;;22.42;64.29;99447.25;221573;183;148219;-66
2023/09/02 12:23:02;;;;;;;5.90;5.20;;;;;;;22.77;64.42;99447.34;221616;183;139842;-62
2023/09/02 12:28:13;;;;;;;3.20;1.90;;;;;;;23.22;64.35;99444.76;221708;183;137670;-65
2023/09/02 12:33:17;;;;;;;3.90;1.80;;;;;;;23.39;61.83;99448.52;221610;182;150754;-65
2023/09/02 12:38:24;;;;;;;2.00;1.80;;;;;;;23.54;60.61;99451.42;221664;183;140445;-64
2023/09/02 12:43:28;;;;;;;2.10;1.40;;;;;;;23.79;59.10;99450.48;221691;183;138649;-60
2023/09/02 12:48:33;;;;;;;2.20;1.50;;;;;;;23.69;58.64;99446.66;221590;186;147756;-62
2023/09/02 12:53:39;;;;;;;2.50;1.70;;;;;;;23.57;59.70;99433.12;221528;183;140673;-63
2023/09/02 12:58:48;;;;;;;63.90;49.90;;;;;;;23.52;60.00;99438.55;221744;182;138076;-62
2023/09/02 13:03:55;;;;;;;2.80;2.60;;;;;;;23.55;60.07;99447.18;221685;183;148350;-61
2023/09/02 13:08:59;;;;;;;38.80;34.20;;;;;;;23.65;60.13;99448.89;221504;183;138884;-63
2023/09/02 13:14:04;;;;;;;6.40;5.40;;;;;;;23.95;60.22;99442.36;221521;183;137996;-63
2023/09/02 13:19:09;;;;;;;2.00;1.80;;;;;;;24.22;58.22;99437.11;221409;183;147734;-61
2023/09/02 13:24:16;;;;;;;1.60;1.50;;;;;;;24.48;58.23;99438.61;221637;183;139914;-62
2023/09/02 13:29:26;;;;;;;4.70;2.70;;;;;;;24.65;58.11;99437.00;221743;182;138623;-62
2023/09/02 13:34:32;;;;;;;6.40;4.20;;;;;;;24.64;58.85;99435.73;221689;183;149186;-61
2023/09/02 13:39:36;;;;;;;2.10;1.70;;;;;;;24.65;59.93;99434.27;221676;184;138885;-62
2023/09/02 13:44:42;;;;;;;2.50;1.90;;;;;;;25.04;57.09;99427.05;221630;183;136859;-63
2023/09/02 13:49:54;;;;;;;;;;;;;;;25.46;55.22;99425.86;221726;183;147672;-62
2023/09/02 13:54:58;;;;;;;2.30;1.60;;;;;;;25.49;53.29;99433.77;221620;183;140043;-63
2023/09/02 14:00:12;;;;;;;3.50;1.70;;;;;;;25.78;52.07;99434.20;221652;183;137666;-61
2023/09/02 14:05:23;;;;;;;1.70;1.50;;;;;;;26.04;51.22;99429.43;221609;182;147590;-61
2023/09/02 14:10:33;;;;;;;2.30;2.00;;;;;;;26.22;50.35;99432.30;221578;183;139962;-61
2023/09/02 14:15:38;;;;;;;1.40;1.30;;;;;;;26.04;49.21;99436.14;221626;183;138033;-61
2023/09/02 14:20:44;;;;;;;2.00;1.60;;;;;;;25.84;49.58;99438.60;221539;183;147720;-61
2023/09/02 14:25:49;;;;;;;2.50;1.30;;;;;;;25.60;49.16;99435.35;221695;184;139884;-64
2023/09/02 14:30:56;;;;;;;2.10;1.20;;;;;;;25.30;49.77;99427.67;221537;183;137746;-64
2023/09/02 14:36:02;;;;;;;3.10;1.20;;;;;;;25.14;49.04;99421.15;221659;183;147709;-61
2023/09/02 14:41:06;;;;;;;1.60;1.20;;;;;;;25.03;49.18;99425.55;221615;184;138928;-61
2023/09/02 14:46:10;;;;;;;1.70;1.10;;;;;;;24.93;49.09;99425.81;221779;183;137118;-62
2023/09/02 14:51:16;;;;;;;3.00;1.40;;;;;;;24.79;49.53;99424.30;221538;183;149222;-61
2023/09/02 14:56:21;;;;;;;2.10;1.30;;;;;;;24.63;49.61;99429.11;221451;183;140820;-64
2023/09/02 15:01:28;;;;;;;1.40;1.20;;;;;;;24.49;50.05;99430.27;221674;183;138170;-61
2023/09/02 15:06:36;;;;;;;1.90;1.30;;;;;;;24.41;50.91;99431.92;221599;183;148917;-63
2023/09/02 15:57:43;;;;;;;8.00;4.40;;;;;;;23.72;57.89;99441.17;220645;193;666884;-60
2023/09/02 16:02:49;;;;;;;5.80;2.90;;;;;;;23.62;58.03;99446.71;221474;187;139304;-60
2023/09/02 16:07:55;;;;;;;6.30;2.60;;;;;;;23.58;57.99;99450.81;221728;185;145445;-62
2023/09/02 16:13:02;;;;;;;25.10;20.40;;;;;;;23.54;58.23;99457.74;221568;183;138882;-64
2023/09/02 16:18:07;;;;;;;6.80;3.70;;;;;;;23.51;58.23;99461.74;221654;183;137229;-59
2023/09/02 16:23:10;;;;;;;4.10;2.30;;;;;;;23.43;58.47;99463.66;221696;184;144351;-61
2023/09/02 16:28:13;;;;;;;229.70;204.80;;;;;;;23.34;59.17;99460.23;221691;183;139344;-61
2023/09/02 16:33:20;;;;;;;13.80;11.80;;;;;;;23.28;59.76;99461.36;221675;183;137650;-60
2023/09/02 16:38:26;;;;;;;;;;;;;;;23.21;60.33;99468.37;221621;183;145470;-60
2023/09/02 16:43:31;;;;;;;105.50;83.90;;;;;;;23.10;60.29;99474.27;221660;183;140492;-61
2023/09/02 16:48:37;;;;;;;21.40;17.30;;;;;;;22.99;60.28;99473.50;221657;183;137992;-61
2023/09/02 16:53:42;;;;;;;9.80;4.80;;;;;;;22.89;60.26;99475.44;221610;183;145950;-63
2023/09/02 16:58:46;;;;;;;19.70;3.50;;;;;;;22.77;60.64;99479.65;221649;183;139512;-60
2023/09/02 17:03:52;;;;;;;;;;;;;;;22.61;61.11;99480.89;221671;183;137485;-63
2023/09/02 17:09:02;;;;;;;8.60;3.00;;;;;;;22.45;61.30;99485.30;221722;184;146399;-59
2023/09/02 17:14:08;;;;;;;4.60;2.70;;;;;;;22.29;61.59;99487.34;221762;184;140982;-59
2023/09/02 17:19:17;;;;;;;6.30;3.20;;;;;;;22.17;62.54;99488.95;221679;184;139541;-60
2023/09/02 17:24:20;;;;;;;8.10;3.20;;;;;;;22.09;63.11;99493.71;221686;184;146409;-62
2023/09/02 17:29:25;;;;;;;8.00;3.20;;;;;;;22.07;64.35;99498.82;221612;184;139871;-61
2023/09/02 17:34:30;;;;;;;11.60;4.00;;;;;;;22.13;65.05;99504.20;221586;183;138099;-61
2023/09/02 17:39:35;;;;;;;10.50;4.90;;;;;;;22.15;65.50;99510.27;221658;184;145631;-60
2023/09/02 17:44:45;;;;;;;35.30;27.70;;;;;;;22.19;66.22;99514.59;221687;184;140739;-60
2023/09/02 17:49:50;;;;;;;23.00;16.10;;;;;;;22.26;66.37;99514.04;221766;184;138928;-58
2023/09/02 17:54:53;;;;;;;7.60;5.50;;;;;;;22.17;66.69;99514.91;221580;183;146305;-62
2023/09/02 17:59:58;;;;;;;8.00;3.30;;;;;;;22.15;66.65;99520.42;221628;184;140576;-60
2023/09/02 18:05:05;;;;;;;4.30;3.40;;;;;;;22.05;66.67;99519.94;221664;184;137531;-62
2023/09/02 19:25:56;;;;;;;11.70;8.10;;;;;;;19.46;76.63;99575.15;220505;192;667399;-62
2023/09/02 19:31:02;;;;;;;7.20;4.50;;;;;;;19.41;76.09;99573.98;221486;187;137214;-61
2023/09/02 19:36:07;;;;;;;9.60;4.40;;;;;;;19.42;76.07;99575.48;221435;187;143985;-62
2023/09/02 19:41:11;;;;;;;8.10;4.20;;;;;;;19.45;75.88;99580.83;221454;187;140752;-60
2023/09/02 19:46:15;;;;;;;7.50;4.10;;;;;;;19.50;75.58;99583.61;221489;187;139924;-61
2023/09/02 19:51:20;;;;;;;;;;;;;;;19.55;75.64;99579.18;221887;181;144365;-59
2023/09/02 19:56:26;;;;;;;;;;;;;;;19.58;75.43;99576.73;221861;182;138781;-63
2023/09/02 20:01:35;;;;;;;9.50;4.80;;;;;;;19.55;75.31;99579.18;221956;181;129353;-62
2023/09/02 20:06:39;;;;;;;7.40;5.10;;;;;;;19.50;75.28;99583.61;221901;181;144069;-61
2023/09/02 20:11:44;;;;;;;7.30;4.60;;;;;;;19.47;75.26;99590.34;221807;182;138636;-64
2023/09/02 20:16:50;;;;;;;7.10;5.30;;;;;;;19.49;74.93;99594.29;221828;178;136986;-63
2023/09/02 20:21:55;;;;;;;7.80;5.40;;;;;;;19.51;74.67;99587.98;221745;181;146353;-64
2023/09/02 20:27:00;;;;;;;12.20;5.40;;;;;;;19.51;74.68;99585.59;221685;182;138667;-65
2023/09/02 20:32:05;;;;;;;9.50;5.50;;;;;;;19.55;75.68;99587.25;221892;182;137677;-62
2023/09/02 20:37:12;;;;;;;9.90;5.10;;;;;;;19.79;76.25;99585.62;221855;181;145871;-63
2023/09/02 20:42:16;;;;;;;15.60;4.80;;;;;;;19.91;75.67;99585.64;221774;182;139364;-62
2023/09/02 20:47:21;;;;;;;10.40;4.80;;;;;;;19.95;75.08;99589.77;221734;182;137623;-62
2023/09/02 20:52:28;;;;;;;10.60;5.90;;;;;;;19.97;74.77;99599.69;221721;182;146173;-60
2023/09/02 20:57:31;;;;;;;8.80;5.40;;;;;;;20.02;74.59;99607.88;221776;181;139077;-63
2023/09/02 21:02:36;;;;;;;10.90;6.20;;;;;;;20.07;74.25;99605.93;221736;181;137774;-61
2023/09/02 21:07:42;;;;;;;16.60;8.40;;;;;;;20.02;74.01;99604.41;221713;181;145815;-61
2023/09/02 21:12:46;;;;;;;9.20;5.70;;;;;;;19.96;73.95;99602.65;221781;181;138625;-59
2023/09/02 21:17:51;;;;;;;8.50;5.90;;;;;;;19.98;73.82;99608.56;221870;182;137093;-59
2023/09/02 21:22:55;;;;;;;10.90;6.70;;;;;;;19.90;73.35;99612.05;221789;182;145507;-61
2023/09/02 21:28:01;;;;;;;12.10;5.80;;;;;;;19.74;73.37;99615.70;221825;181;139493;-58
2023/09/02 21:33:05;;;;;;;14.10;6.30;;;;;;;19.57;73.64;99620.52;221675;182;136992;-61
2023/09/02 21:38:10;;;;;;;14.70;6.40;;;;;;;19.44;73.88;99619.83;221762;181;146015;-60
2023/09/02 21:43:13;;;;;;;10.30;6.70;;;;;;;19.33;74.09;99629.61;221829;181;138693;-61
2023/09/02 21:48:17;;;;;;;12.00;6.20;;;;;;;19.25;74.50;99625.21;221839;182;137966;-59
2023/09/02 21:53:22;;;;;;;10.20;6.40;;;;;;;19.29;74.65;99619.49;221770;181;145912;-60
2023/09/02 21:58:27;;;;;;;9.90;6.10;;;;;;;19.31;74.55;99625.46;221879;182;140254;-56
2023/09/02 22:03:32;;;;;;;11.80;7.00;;;;;;;19.24;74.46;99624.24;221879;181;137730;-63
2023/09/02 22:08:42;;;;;;;9.20;6.90;;;;;;;19.20;74.59;99622.44;221878;182;147027;-63
2023/09/02 22:13:48;;;;;;;10.20;7.30;;;;;;;19.11;74.79;99614.92;221793;181;140243;-64
2023/09/02 22:18:52;;;;;;;11.80;6.80;;;;;;;19.05;74.87;99608.69;221899;181;137931;-68
2023/09/02 22:24:15;;;;;;;12.20;7.00;;;;;;;19.03;75.15;99610.67;221961;181;147628;-60
2023/09/02 22:29:19;;;;;;;12.00;7.40;;;;;;;19.16;76.13;99611.30;221773;182;140585;-60
2023/09/02 22:34:24;;;;;;;10.30;6.50;;;;;;;19.61;75.88;99612.52;221618;181;136886;-62
2023/09/02 22:39:30;;;;;;;;;;;;;;;19.99;75.27;99613.90;221660;183;145889;-63
2023/09/02 22:44:35;;;;;;;11.20;6.60;;;;;;;20.14;72.68;99608.54;221820;178;138704;-65
2023/09/02 22:49:40;;;;;;;10.80;6.70;;;;;;;19.75;72.12;99613.44;221704;181;139015;-68
2023/09/02 22:54:44;;;;;;;9.50;6.50;;;;;;;19.45;71.96;99606.00;221707;181;145838;-66
2023/09/02 22:59:51;;;;;;;12.70;6.60;;;;;;;19.23;71.93;99603.30;221674;182;138967;-64
2023/09/02 23:04:57;;;;;;;8.70;6.30;;;;;;;19.07;72.15;99600.89;221749;182;137036;-62
2023/09/02 23:10:01;;;;;;;12.20;6.60;;;;;;;18.97;72.81;99602.94;221761;181;146505;-64
2023/09/02 23:15:07;;;;;;;10.00;6.40;;;;;;;18.84;73.36;99594.89;221716;182;138960;-64
2023/09/02 23:20:12;;;;;;;9.20;5.80;;;;;;;18.71;73.72;99582.89;221800;181;139319;-63
2023/09/02 23:25:16;;;;;;;8.90;6.60;;;;;;;18.65;73.98;99577.42;221833;182;145906;-63
2023/09/02 23:30:21;;;;;;;9.40;6.10;;;;;;;18.68;74.40;99578.23;221809;182;138896;-64
2023/09/02 23:35:25;;;;;;;11.20;7.00;;;;;;;18.65;74.54;99577.76;221722;182;138099;-66
2023/09/02 23:40:30;;;;;;;9.60;6.20;;;;;;;18.56;74.49;99579.61;221668;182;145726;-66
2023/09/02 23:45:37;;;;;;;12.60;6.00;;;;;;;18.49;74.70;99575.20;221683;182;138988;-63
2023/09/02 23:50:43;;;;;;;9.00;6.00;;;;;;;18.42;74.88;99562.92;221819;181;137464;-65
2023/09/02 23:55:48;;;;;;;11.80;5.30;;;;;;;18.38;75.22;99560.03;221796;181;145915;-64
